Terminal Aerodrome Forecast
Issued by NWS Tampa Bay Area, FL

Home | Current Version | Previous Version | Text Only | Print | Product List | Glossary On
Versions: 1 2 3 4 5 6 7 8 9 10 11 12 13 14 15 16 17 18 19 20 21 22 23 24
000
FTUS42 KTBW 182338
TAFSRQ
TAF
KSRQ 182338Z 1900/1924 20012KT P6SM SKC
     FM190300 16010KT P6SM FEW035 SCT200
     FM191200 18018G25KT P6SM SCT020 BKN050
     FM191400 20025G32KT P6SM VCTS SCT020CB OVC050
     FM191700 22028G35KT 4SM TSRA SCT010CB BKN015=

USA.gov is the U.S. government's official web portal to all federal, state and local government web resources and services.